sensor_id;sensor_type;location;lat;lon;timestamp;pressure;altitude;pressure_sealevel;temperature;humidity
63554;BME280;49699;48.072;7.800;2023-04-05T00:02:03;99964.00;;;-0.07;70.74
63554;BME280;49699;48.072;7.800;2023-04-05T00:04:29;99969.16;;;-0.13;70.75
63554;BME280;49699;48.072;7.800;2023-04-05T00:06:58;99958.09;;;-0.17;71.01
63554;BME280;49699;48.072;7.800;2023-04-05T00:09:23;99967.47;;;-0.17;71.30
63554;BME280;49699;48.072;7.800;2023-04-05T00:11:49;99960.69;;;-0.21;71.29
63554;BME280;49699;48.072;7.800;2023-04-05T00:14:14;99963.25;;;-0.21;71.63
63554;BME280;49699;48.072;7.800;2023-04-05T00:16:39;99969.22;;;-0.22;71.53
63554;BME280;49699;48.072;7.800;2023-04-05T00:19:05;99964.97;;;-0.26;71.59
63554;BME280;49699;48.072;7.800;2023-04-05T00:21:30;99959.00;;;-0.25;71.62
63554;BME280;49699;48.072;7.800;2023-04-05T00:23:58;99963.28;;;-0.26;71.69
63554;BME280;49699;48.072;7.800;2023-04-05T00:26:23;99965.84;;;-0.27;71.82
63554;BME280;49699;48.072;7.800;2023-04-05T00:28:53;99961.56;;;-0.25;72.13
63554;BME280;49699;48.072;7.800;2023-04-05T00:31:18;99954.75;;;-0.25;71.96
63554;BME280;49699;48.072;7.800;2023-04-05T00:33:44;99954.72;;;-0.20;71.86
63554;BME280;49699;48.072;7.800;2023-04-05T00:36:13;99951.25;;;-0.15;71.65
63554;BME280;49699;48.072;7.800;2023-04-05T00:38:39;99952.09;;;-0.11;71.41
63554;BME280;49699;48.072;7.800;2023-04-05T00:41:05;99952.06;;;-0.07;71.61
63554;BME280;49699;48.072;7.800;2023-04-05T00:43:30;99949.47;;;-0.01;71.44
63554;BME280;49699;48.072;7.800;2023-04-05T00:45:55;99950.28;;;0.05;71.50
63554;BME280;49699;48.072;7.800;2023-04-05T00:48:21;99949.41;;;0.09;71.42
63554;BME280;49699;48.072;7.800;2023-04-05T00:50:47;99949.41;;;0.10;71.34
63554;BME280;49699;48.072;7.800;2023-04-05T00:53:13;99955.34;;;0.14;71.47
63554;BME280;49699;48.072;7.800;2023-04-05T00:55:39;99945.94;;;0.17;71.26
63554;BME280;49699;48.072;7.800;2023-04-05T00:58:06;99943.31;;;0.22;71.35
63554;BME280;49699;48.072;7.800;2023-04-05T01:00:35;99940.75;;;0.25;71.04
63554;BME280;49699;48.072;7.800;2023-04-05T01:03:02;99945.88;;;0.22;71.41
63554;BME280;49699;48.072;7.800;2023-04-05T01:10:34;99930.59;;;0.17;71.81
63554;BME280;49699;48.072;7.800;2023-04-05T01:13:01;99929.75;;;0.17;71.99
63554;BME280;49699;48.072;7.800;2023-04-05T01:15:28;99923.72;;;0.19;71.71
63554;BME280;49699;48.072;7.800;2023-04-05T01:17:54;99920.28;;;0.20;71.95
63554;BME280;49699;48.072;7.800;2023-04-05T01:20:21;99906.63;;;0.23;71.74
63554;BME280;49699;48.072;7.800;2023-04-05T01:30:23;99903.19;;;0.28;72.01
63554;BME280;49699;48.072;7.800;2023-04-05T01:32:54;99891.22;;;0.29;71.73
63554;BME280;49699;48.072;7.800;2023-04-05T01:36:13;99898.06;;;0.27;71.63
63554;BME280;49699;48.072;7.800;2023-04-05T01:38:10;99892.94;;;0.27;71.83
63554;BME280;49699;48.072;7.800;2023-04-05T01:40:39;99896.38;;;0.26;72.06
63554;BME280;49699;48.072;7.800;2023-04-05T01:43:14;99891.25;;;0.26;72.13
63554;BME280;49699;48.072;7.800;2023-04-05T01:45:43;99892.06;;;0.31;71.68
63554;BME280;49699;48.072;7.800;2023-04-05T01:48:09;99887.72;;;0.36;71.83
63554;BME280;49699;48.072;7.800;2023-04-05T01:50:34;99882.59;;;0.39;71.32
63554;BME280;49699;48.072;7.800;2023-04-05T01:53:00;99886.81;;;0.43;71.27
63554;BME280;49699;48.072;7.800;2023-04-05T01:55:25;99888.50;;;0.49;71.14
63554;BME280;49699;48.072;7.800;2023-04-05T01:57:50;99870.47;;;0.56;70.74
63554;BME280;49699;48.072;7.800;2023-04-05T02:00:16;99878.09;;;0.64;70.39
63554;BME280;49699;48.072;7.800;2023-04-05T02:02:43;99875.47;;;0.70;70.10
63554;BME280;49699;48.072;7.800;2023-04-05T02:05:09;99876.25;;;0.74;69.85
63554;BME280;49699;48.072;7.800;2023-04-05T02:07:34;99865.13;;;0.76;69.87
63554;BME280;49699;48.072;7.800;2023-04-05T02:10:01;99866.84;;;0.76;69.81
63554;BME280;49699;48.072;7.800;2023-04-05T02:12:26;99866.84;;;0.74;69.91
63554;BME280;49699;48.072;7.800;2023-04-05T02:14:51;99868.59;;;0.72;69.77
63554;BME280;49699;48.072;7.800;2023-04-05T02:17:17;99862.66;;;0.68;69.93
63554;BME280;49699;48.072;7.800;2023-04-05T02:19:43;99857.56;;;0.65;70.04
63554;BME280;49699;48.072;7.800;2023-04-05T02:22:10;99864.44;;;0.62;69.89
63554;BME280;49699;48.072;7.800;2023-04-05T02:24:36;99863.59;;;0.60;70.00
63554;BME280;49699;48.072;7.800;2023-04-05T02:27:02;99861.06;;;0.57;69.88
63554;BME280;49699;48.072;7.800;2023-04-05T02:29:28;99854.25;;;0.54;69.83
63554;BME280;49699;48.072;7.800;2023-04-05T02:31:53;99862.84;;;0.53;69.85
63554;BME280;49699;48.072;7.800;2023-04-05T02:34:18;99860.31;;;0.50;69.96
63554;BME280;49699;48.072;7.800;2023-04-05T02:36:44;99856.03;;;0.49;69.92
63554;BME280;49699;48.072;7.800;2023-04-05T02:39:09;99862.03;;;0.48;69.95
63554;BME280;49699;48.072;7.800;2023-04-05T02:41:36;99865.44;;;0.49;69.93
63554;BME280;49699;48.072;7.800;2023-04-05T02:44:02;99867.13;;;0.50;69.95
63554;BME280;49699;48.072;7.800;2023-04-05T02:46:29;99867.97;;;0.50;69.86
63554;BME280;49699;48.072;7.800;2023-04-05T02:48:55;99878.22;;;0.50;69.53
63554;BME280;49699;48.072;7.800;2023-04-05T02:51:24;99864.56;;;0.50;69.75
63554;BME280;49699;48.072;7.800;2023-04-05T02:53:51;99870.53;;;0.50;69.48
63554;BME280;49699;48.072;7.800;2023-04-05T02:56:18;99862.88;;;0.49;69.43
63554;BME280;49699;48.072;7.800;2023-04-05T02:58:46;99863.75;;;0.45;69.69
63554;BME280;49699;48.072;7.800;2023-04-05T03:01:14;99859.50;;;0.42;69.95
63554;BME280;49699;48.072;7.800;2023-04-05T03:03:43;99855.28;;;0.40;69.61
63554;BME280;49699;48.072;7.800;2023-04-05T03:06:08;99851.88;;;0.36;69.78
63554;BME280;49699;48.072;7.800;2023-04-05T03:08:44;99851.94;;;0.34;69.74
63554;BME280;49699;48.072;7.800;2023-04-05T03:11:13;99857.91;;;0.33;70.07
63554;BME280;49699;48.072;7.800;2023-04-05T03:13:42;99865.63;;;0.30;70.15
63554;BME280;49699;48.072;7.800;2023-04-05T03:16:14;99860.53;;;0.27;69.99
63554;BME280;49699;48.072;7.800;2023-04-05T03:18:40;99863.97;;;0.23;70.50
63554;BME280;49699;48.072;7.800;2023-04-05T03:21:08;99858.88;;;0.19;70.26
63554;BME280;49699;48.072;7.800;2023-04-05T03:23:43;99862.34;;;0.13;70.64
63554;BME280;49699;48.072;7.800;2023-04-05T03:26:13;99853.00;;;0.09;70.87
63554;BME280;49699;48.072;7.800;2023-04-05T03:28:41;99853.88;;;0.05;70.88
63554;BME280;49699;48.072;7.800;2023-04-05T03:31:11;99857.31;;;0.03;71.29
63554;BME280;49699;48.072;7.800;2023-04-05T03:33:36;99844.59;;;-0.02;71.17
63554;BME280;49699;48.072;7.800;2023-04-05T03:36:03;99853.13;;;-0.03;71.36
63554;BME280;49699;48.072;7.800;2023-04-05T03:38:31;99848.88;;;-0.06;71.26
63554;BME280;49699;48.072;7.800;2023-04-05T03:41:07;99841.19;;;-0.07;71.42
63554;BME280;49699;48.072;7.800;2023-04-05T03:43:33;99845.50;;;-0.11;71.44
63554;BME280;49699;48.072;7.800;2023-04-05T03:45:58;99849.78;;;-0.14;71.43
63554;BME280;49699;48.072;7.800;2023-04-05T03:48:26;99850.63;;;-0.17;71.47
63554;BME280;49699;48.072;7.800;2023-04-05T03:50:52;99841.28;;;-0.18;71.64
63554;BME280;49699;48.072;7.800;2023-04-05T03:53:19;99843.88;;;-0.19;71.58
63554;BME280;49699;48.072;7.800;2023-04-05T03:55:47;99852.41;;;-0.20;71.92
63554;BME280;49699;48.072;7.800;2023-04-05T03:58:16;99849.84;;;-0.23;71.88
63554;BME280;49699;48.072;7.800;2023-04-05T04:00:42;99854.97;;;-0.23;72.16
63554;BME280;49699;48.072;7.800;2023-04-05T04:03:12;99854.97;;;-0.23;71.93
63554;BME280;49699;48.072;7.800;2023-04-05T04:05:42;99850.72;;;-0.23;72.03
63554;BME280;49699;48.072;7.800;2023-04-05T04:08:08;99849.88;;;-0.25;72.23
63554;BME280;49699;48.072;7.800;2023-04-05T04:10:34;99853.28;;;-0.26;72.09
63554;BME280;49699;48.072;7.800;2023-04-05T04:13:01;99852.44;;;-0.26;72.33
63554;BME280;49699;48.072;7.800;2023-04-05T04:15:30;99858.41;;;-0.26;72.19
63554;BME280;49699;48.072;7.800;2023-04-05T04:18:22;99854.13;;;-0.22;72.24
63554;BME280;49699;48.072;7.800;2023-04-05T04:21:10;99845.59;;;-0.21;72.05
63554;BME280;49699;48.072;7.800;2023-04-05T04:23:58;99851.56;;;-0.21;72.14
63554;BME280;49699;48.072;7.800;2023-04-05T04:26:46;99857.53;;;-0.20;71.82
63554;BME280;49699;48.072;7.800;2023-04-05T04:29:35;99851.53;;;-0.19;72.12
63554;BME280;49699;48.072;7.800;2023-04-05T04:32:20;99856.69;;;-0.22;72.11
63554;BME280;49699;48.072;7.800;2023-04-05T04:35:26;99856.66;;;-0.19;71.90
63554;BME280;49699;48.072;7.800;2023-04-05T04:38:09;99862.56;;;-0.16;71.82
63554;BME280;49699;48.072;7.800;2023-04-05T04:40:48;99854.91;;;-0.17;71.94
63554;BME280;49699;48.072;7.800;2023-04-05T04:43:21;99863.44;;;-0.15;71.72
63554;BME280;49699;48.072;7.800;2023-04-05T04:46:13;99872.81;;;-0.16;71.96
63554;BME280;49699;48.072;7.800;2023-04-05T04:49:08;99877.94;;;-0.16;72.17
63554;BME280;49699;48.072;7.800;2023-04-05T04:51:37;99875.44;;;-0.22;72.28
63554;BME280;49699;48.072;7.800;2023-04-05T04:54:03;99877.16;;;-0.25;72.21
63554;BME280;49699;48.072;7.800;2023-04-05T04:56:28;99879.72;;;-0.28;72.30
63554;BME280;49699;48.072;7.800;2023-04-05T04:58:55;99873.78;;;-0.30;72.83
63554;BME280;49699;48.072;7.800;2023-04-05T05:01:21;99881.44;;;-0.29;72.55
63554;BME280;49699;48.072;7.800;2023-04-05T05:03:46;99877.19;;;-0.30;72.58
63554;BME280;49699;48.072;7.800;2023-04-05T05:06:16;99884.00;;;-0.30;73.08
63554;BME280;49699;48.072;7.800;2023-04-05T05:08:43;99883.13;;;-0.28;72.53
63554;BME280;49699;48.072;7.800;2023-04-05T05:11:08;99881.44;;;-0.27;72.53
63554;BME280;49699;48.072;7.800;2023-04-05T05:13:33;99883.97;;;-0.26;72.51
63554;BME280;49699;48.072;7.800;2023-04-05T05:15:59;99881.44;;;-0.27;72.43
63554;BME280;49699;48.072;7.800;2023-04-05T05:18:26;99885.69;;;-0.28;72.71
63554;BME280;49699;48.072;7.800;2023-04-05T05:20:51;99885.69;;;-0.28;72.66
63554;BME280;49699;48.072;7.800;2023-04-05T05:23:16;99879.72;;;-0.28;73.00
63554;BME280;49699;48.072;7.800;2023-04-05T05:25:42;99880.59;;;-0.31;72.86
63554;BME280;49699;48.072;7.800;2023-04-05T05:28:07;99879.75;;;-0.35;73.39
63554;BME280;49699;48.072;7.800;2023-04-05T05:30:32;99878.94;;;-0.37;73.18
63554;BME280;49699;48.072;7.800;2023-04-05T05:32:58;99873.78;;;-0.32;73.10
63554;BME280;49699;48.072;7.800;2023-04-05T05:35:23;99888.25;;;-0.29;73.24
63554;BME280;49699;48.072;7.800;2023-04-05T05:37:49;99893.34;;;-0.23;72.98
63554;BME280;49699;48.072;7.800;2023-04-05T05:40:15;99885.66;;;-0.19;73.08
63554;BME280;49699;48.072;7.800;2023-04-05T05:42:40;99886.44;;;-0.14;72.60
63554;BME280;49699;48.072;7.800;2023-04-05T05:45:06;99891.53;;;-0.11;72.79
63554;BME280;49699;48.072;7.800;2023-04-05T05:47:31;99887.25;;;-0.09;72.45
63554;BME280;49699;48.072;7.800;2023-04-05T05:49:56;99889.78;;;-0.04;72.35
63554;BME280;49699;48.072;7.800;2023-04-05T05:52:22;99893.19;;;-0.02;72.39
63554;BME280;49699;48.072;7.800;2023-04-05T05:54:47;99894.06;;;-0.02;72.34
63554;BME280;49699;48.072;7.800;2023-04-05T05:57:13;99899.09;;;0.03;72.43
63554;BME280;49699;48.072;7.800;2023-04-05T05:59:38;99899.06;;;0.08;72.31
63554;BME280;49699;48.072;7.800;2023-04-05T06:02:03;99903.31;;;0.12;72.03
63554;BME280;49699;48.072;7.800;2023-04-05T06:04:29;99902.38;;;0.20;71.91
63554;BME280;49699;48.072;7.800;2023-04-05T06:06:55;99896.34;;;0.29;71.64
63554;BME280;49699;48.072;7.800;2023-04-05T06:09:20;99901.38;;;0.37;71.43
63554;BME280;49699;48.072;7.800;2023-04-05T06:11:49;99901.31;;;0.44;71.34
63554;BME280;49699;48.072;7.800;2023-04-05T06:14:15;99897.81;;;0.54;71.14
63554;BME280;49699;48.072;7.800;2023-04-05T06:16:40;99897.72;;;0.65;70.53
63554;BME280;49699;48.072;7.800;2023-04-05T06:19:05;99902.75;;;0.73;70.63
63554;BME280;49699;48.072;7.800;2023-04-05T06:21:31;99902.66;;;0.80;70.23
63554;BME280;49699;48.072;7.800;2023-04-05T06:23:56;99892.38;;;0.86;70.11
63554;BME280;49699;48.072;7.800;2023-04-05T06:26:22;99889.78;;;0.88;69.98
63554;BME280;49699;48.072;7.800;2023-04-05T06:28:51;99890.56;;;0.91;70.16
63554;BME280;49699;48.072;7.800;2023-04-05T06:31:18;99885.38;;;0.99;69.84
63554;BME280;49699;48.072;7.800;2023-04-05T06:33:44;99893.78;;;1.09;69.66
63554;BME280;49699;48.072;7.800;2023-04-05T06:36:09;99895.44;;;1.14;69.46
63554;BME280;49699;48.072;7.800;2023-04-05T06:38:35;99896.25;;;1.19;69.42
63554;BME280;49699;48.072;7.800;2023-04-05T06:41:00;99896.13;;;1.28;69.20
63554;BME280;49699;48.072;7.800;2023-04-05T06:43:26;99898.56;;;1.39;68.98
63554;BME280;49699;48.072;7.800;2023-04-05T06:45:54;99904.41;;;1.49;68.88
63554;BME280;49699;48.072;7.800;2023-04-05T06:48:19;99901.75;;;1.56;68.55
63554;BME280;49699;48.072;7.800;2023-04-05T06:50:45;99899.88;;;1.67;68.34
63554;BME280;49699;48.072;7.800;2023-04-05T06:53:10;99906.50;;;1.82;67.93
63554;BME280;49699;48.072;7.800;2023-04-05T06:55:38;99908.88;;;1.96;67.43
63554;BME280;49699;48.072;7.800;2023-04-05T06:58:03;99910.38;;;2.09;66.88
63554;BME280;49699;48.072;7.800;2023-04-05T07:00:28;99905.00;;;2.23;66.64
63554;BME280;49699;48.072;7.800;2023-04-05T07:02:54;99912.69;;;2.24;66.09
63554;BME280;49699;48.072;7.800;2023-04-05T07:05:19;99910.00;;;2.32;66.17
63554;BME280;49699;48.072;7.800;2023-04-05T07:07:44;99902.06;;;2.46;65.86
63554;BME280;49699;48.072;7.800;2023-04-05T07:10:12;99902.72;;;2.55;65.45
63554;BME280;49699;48.072;7.800;2023-04-05T07:12:38;99902.69;;;2.58;65.31
63554;BME280;49699;48.072;7.800;2023-04-05T07:15:04;99897.50;;;2.61;65.38
63554;BME280;49699;48.072;7.800;2023-04-05T07:17:29;99897.47;;;2.63;65.08
63554;BME280;49699;48.072;7.800;2023-04-05T07:19:54;99896.44;;;2.71;64.84
63554;BME280;49699;48.072;7.800;2023-04-05T07:22:20;99900.59;;;2.78;64.75
63554;BME280;49699;48.072;7.800;2023-04-05T07:24:45;99905.44;;;2.95;64.24
63554;BME280;49699;48.072;7.800;2023-04-05T07:27:11;99904.34;;;3.05;64.61
63554;BME280;49699;48.072;7.800;2023-04-05T07:29:36;99906.63;;;3.22;64.03
63554;BME280;49699;48.072;7.800;2023-04-05T07:32:05;99904.63;;;3.35;63.49
63554;BME280;49699;48.072;7.800;2023-04-05T07:34:30;99901.81;;;3.45;63.52
63554;BME280;49699;48.072;7.800;2023-04-05T07:36:55;99906.63;;;3.61;63.17
63554;BME280;49699;48.072;7.800;2023-04-05T07:39:20;99899.28;;;3.82;62.74
63554;BME280;49699;48.072;7.800;2023-04-05T07:41:46;99892.53;;;4.14;61.94
63554;BME280;49699;48.072;7.800;2023-04-05T07:44:12;99900.59;;;4.36;61.54
63554;BME280;49699;48.072;7.800;2023-04-05T07:46:37;99896.72;;;4.52;61.39
63554;BME280;49699;48.072;7.800;2023-04-05T07:49:03;99898.25;;;4.61;61.41
63554;BME280;49699;48.072;7.800;2023-04-05T07:51:28;99890.69;;;4.85;60.76
63554;BME280;49699;48.072;7.800;2023-04-05T07:53:53;99895.28;;;5.05;59.77
63554;BME280;49699;48.072;7.800;2023-04-05T07:56:19;99903.31;;;5.26;59.53
63554;BME280;49699;48.072;7.800;2023-04-05T07:58:45;99899.00;;;5.55;59.21
63554;BME280;49699;48.072;7.800;2023-04-05T08:01:11;99894.97;;;5.75;57.70
63554;BME280;49699;48.072;7.800;2023-04-05T08:03:37;99902.09;;;5.68;57.13
63554;BME280;49699;48.072;7.800;2023-04-05T08:06:09;99900.06;;;5.78;57.34
63554;BME280;49699;48.072;7.800;2023-04-05T08:08:35;99892.28;;;6.07;56.30
63554;BME280;49699;48.072;7.800;2023-04-05T08:11:04;99896.72;;;6.28;55.75
63554;BME280;49699;48.072;7.800;2023-04-05T08:13:30;99895.28;;;6.46;55.32
63554;BME280;49699;48.072;7.800;2023-04-05T08:15:55;99890.56;;;6.59;54.83
63554;BME280;49699;48.072;7.800;2023-04-05T08:18:21;99885.69;;;6.75;54.48
63554;BME280;49699;48.072;7.800;2023-04-05T08:20:49;99883.56;;;6.86;53.71
63554;BME280;49699;48.072;7.800;2023-04-05T08:23:15;99884.72;;;7.02;53.32
63554;BME280;49699;48.072;7.800;2023-04-05T08:25:40;99884.16;;;7.17;52.50
63554;BME280;49699;48.072;7.800;2023-04-05T08:28:05;99880.28;;;7.29;52.15
63554;BME280;49699;48.072;7.800;2023-04-05T08:30:31;99883.19;;;7.43;50.82
63554;BME280;49699;48.072;7.800;2023-04-05T08:32:56;99882.97;;;7.49;49.20
63554;BME280;49699;48.072;7.800;2023-04-05T08:35:21;99875.09;;;7.52;48.81
63554;BME280;49699;48.072;7.800;2023-04-05T08:37:46;99872.59;;;7.71;48.56
63554;BME280;49699;48.072;7.800;2023-04-05T08:40:12;99874.91;;;8.00;47.29
63554;BME280;49699;48.072;7.800;2023-04-05T08:42:41;99871.69;;;8.16;46.59
63554;BME280;49699;48.072;7.800;2023-04-05T08:45:09;99876.31;;;8.29;45.93
63554;BME280;49699;48.072;7.800;2023-04-05T08:47:35;99864.31;;;8.49;45.09
63554;BME280;49699;48.072;7.800;2023-04-05T08:50:01;99872.81;;;8.73;44.76
63554;BME280;49699;48.072;7.800;2023-04-05T08:52:27;99871.03;;;8.93;43.90
63554;BME280;49699;48.072;7.800;2023-04-05T08:54:53;99874.41;;;9.14;43.01
63554;BME280;49699;48.072;7.800;2023-04-05T08:57:21;99865.44;;;9.21;42.33
63554;BME280;49699;48.072;7.800;2023-04-05T08:59:49;99869.00;;;9.19;41.66
63554;BME280;49699;48.072;7.800;2023-04-05T09:02:16;99867.53;;;9.32;41.85
63554;BME280;49699;48.072;7.800;2023-04-05T09:04:43;99865.78;;;9.51;40.83
63554;BME280;49699;48.072;7.800;2023-04-05T09:07:08;99867.53;;;9.51;41.44
63554;BME280;49699;48.072;7.800;2023-04-05T09:09:35;99867.00;;;9.63;40.86
63554;BME280;49699;48.072;7.800;2023-04-05T09:12:04;99867.91;;;9.62;40.78
63554;BME280;49699;48.072;7.800;2023-04-05T09:14:32;99865.84;;;9.50;40.67
63554;BME280;49699;48.072;7.800;2023-04-05T09:16:58;99865.03;;;9.49;40.03
63554;BME280;49699;48.072;7.800;2023-04-05T09:19:26;99863.53;;;9.62;40.33
63554;BME280;49699;48.072;7.800;2023-04-05T09:22:06;99862.13;;;9.74;40.35
63554;BME280;49699;48.072;7.800;2023-04-05T09:24:39;99865.13;;;9.84;40.35
63554;BME280;49699;48.072;7.800;2023-04-05T09:27:06;99852.38;;;9.96;39.73
63554;BME280;49699;48.072;7.800;2023-04-05T09:29:32;99851.56;;;10.13;39.88
63554;BME280;49699;48.072;7.800;2023-04-05T09:32:02;99855.25;;;10.43;39.05
63554;BME280;49699;48.072;7.800;2023-04-05T09:34:30;99852.25;;;10.68;38.44
63554;BME280;49699;48.072;7.800;2023-04-05T09:36:57;99842.75;;;10.85;37.90
63554;BME280;49699;48.072;7.800;2023-04-05T09:39:29;99846.91;;;10.71;37.29
63554;BME280;49699;48.072;7.800;2023-04-05T09:44:47;99849.16;;;10.77;37.65
63554;BME280;49699;48.072;7.800;2023-04-05T09:47:16;99855.91;;;10.82;37.21
63554;BME280;49699;48.072;7.800;2023-04-05T09:49:42;99841.91;;;10.84;36.89
63554;BME280;49699;48.072;7.800;2023-04-05T09:52:21;99843.09;;;10.94;36.77
63554;BME280;49699;48.072;7.800;2023-04-05T09:54:46;99847.25;;;11.14;36.33
63554;BME280;49699;48.072;7.800;2023-04-05T09:57:12;99834.59;;;11.24;36.06
63554;BME280;49699;48.072;7.800;2023-04-05T09:59:39;99840.81;;;11.37;35.67
63554;BME280;49699;48.072;7.800;2023-04-05T10:02:04;99835.84;;;11.32;35.23
63554;BME280;49699;48.072;7.800;2023-04-05T10:04:37;99835.81;;;11.17;35.43
63554;BME280;49699;48.072;7.800;2023-04-05T10:07:02;99843.63;;;11.01;35.81
63554;BME280;49699;48.072;7.800;2023-04-05T10:09:28;99837.47;;;11.02;35.93
63554;BME280;49699;48.072;7.800;2023-04-05T10:11:53;99823.94;;;10.95;35.89
63554;BME280;49699;48.072;7.800;2023-04-05T10:14:20;99830.63;;;10.84;36.29
63554;BME280;49699;48.072;7.800;2023-04-05T10:19:26;99828.00;;;11.17;36.11
63554;BME280;49699;48.072;7.800;2023-04-05T10:21:53;99824.25;;;11.38;36.16
63554;BME280;49699;48.072;7.800;2023-04-05T10:26:54;99825.25;;;11.51;35.60
63554;BME280;49699;48.072;7.800;2023-04-05T10:29:29;99824.41;;;11.51;35.95
63554;BME280;49699;48.072;7.800;2023-04-05T10:32:03;99819.53;;;11.44;35.26
63554;BME280;49699;48.072;7.800;2023-04-05T10:37:00;99817.03;;;11.27;36.20
63554;BME280;49699;48.072;7.800;2023-04-05T10:39:43;99812.13;;;11.53;35.74
63554;BME280;49699;48.072;7.800;2023-04-05T10:42:26;99819.94;;;11.53;35.58
63554;BME280;49699;48.072;7.800;2023-04-05T10:44:52;99816.16;;;11.58;35.32
63554;BME280;49699;48.072;7.800;2023-04-05T10:47:24;99819.44;;;11.62;35.07
63554;BME280;49699;48.072;7.800;2023-04-05T10:49:52;99811.03;;;11.88;34.60
63554;BME280;49699;48.072;7.800;2023-04-05T10:52:20;99811.72;;;12.06;34.17
63554;BME280;49699;48.072;7.800;2023-04-05T10:54:46;99801.38;;;12.04;33.74
63554;BME280;49699;48.072;7.800;2023-04-05T10:57:13;99801.50;;;11.87;34.52
63554;BME280;49699;48.072;7.800;2023-04-05T10:59:39;99809.34;;;11.71;34.38
63554;BME280;49699;48.072;7.800;2023-04-05T11:02:05;99802.59;;;11.67;34.49
63554;BME280;49699;48.072;7.800;2023-04-05T11:04:32;99799.06;;;11.68;34.51
63554;BME280;49699;48.072;7.800;2023-04-05T11:07:10;99799.44;;;11.78;34.24
63554;BME280;49699;48.072;7.800;2023-04-05T11:09:36;99801.34;;;11.90;34.14
63554;BME280;49699;48.072;7.800;2023-04-05T11:12:02;99800.66;;;11.87;33.40
63554;BME280;49699;48.072;7.800;2023-04-05T11:14:34;99797.50;;;11.81;33.48
63554;BME280;49699;48.072;7.800;2023-04-05T11:17:00;99798.34;;;11.82;33.97
63554;BME280;49699;48.072;7.800;2023-04-05T11:22:07;99797.88;;;12.64;33.00
63554;BME280;49699;48.072;7.800;2023-04-05T11:24:52;99789.94;;;12.65;32.12
63554;BME280;49699;48.072;7.800;2023-04-05T11:27:25;99785.84;;;12.61;32.37
63554;BME280;49699;48.072;7.800;2023-04-05T11:29:52;99790.59;;;12.69;32.41
63554;BME280;49699;48.072;7.800;2023-04-05T11:32:18;99777.16;;;12.61;32.08
63554;BME280;49699;48.072;7.800;2023-04-05T11:34:43;99789.72;;;12.40;32.26
63554;BME280;49699;48.072;7.800;2023-04-05T11:37:09;99771.84;;;12.48;32.10
63554;BME280;49699;48.072;7.800;2023-04-05T11:39:34;99773.97;;;12.41;32.09
63554;BME280;49699;48.072;7.800;2023-04-05T11:42:05;99778.53;;;12.38;32.96
63554;BME280;49699;48.072;7.800;2023-04-05T11:47:05;99773.31;;;12.38;32.25
63554;BME280;49699;48.072;7.800;2023-04-05T11:49:32;99770.53;;;12.41;32.53
63554;BME280;49699;48.072;7.800;2023-04-05T11:51:57;99772.19;;;12.56;32.45
63554;BME280;49699;48.072;7.800;2023-04-05T11:54:29;99770.34;;;12.58;31.92
63554;BME280;49699;48.072;7.800;2023-04-05T11:56:55;99769.41;;;12.59;32.04
63554;BME280;49699;48.072;7.800;2023-04-05T11:59:26;99769.06;;;12.65;31.86
63554;BME280;49699;48.072;7.800;2023-04-05T12:01:56;99763.16;;;12.90;31.51
63554;BME280;49699;48.072;7.800;2023-04-05T12:04:21;99768.19;;;13.07;31.21
63554;BME280;49699;48.072;7.800;2023-04-05T12:06:48;99748.91;;;13.37;30.99
63554;BME280;49699;48.072;7.800;2023-04-05T12:09:13;99756.56;;;13.40;30.38
63554;BME280;49699;48.072;7.800;2023-04-05T12:11:38;99758.53;;;13.36;30.82
63554;BME280;49699;48.072;7.800;2023-04-05T12:14:05;99744.63;;;13.36;31.00
63554;BME280;49699;48.072;7.800;2023-04-05T12:16:30;99746.69;;;13.31;30.92
63554;BME280;49699;48.072;7.800;2023-04-05T12:18:56;99739.78;;;13.30;30.87
63554;BME280;49699;48.072;7.800;2023-04-05T12:21:22;99737.81;;;13.33;31.21
63554;BME280;49699;48.072;7.800;2023-04-05T12:23:48;99739.06;;;13.67;30.94
63554;BME280;49699;48.072;7.800;2023-04-05T12:26:13;99741.31;;;13.86;30.91
63554;BME280;49699;48.072;7.800;2023-04-05T12:28:48;99727.00;;;14.04;30.20
63554;BME280;49699;48.072;7.800;2023-04-05T12:31:14;99732.47;;;14.14;30.04
63554;BME280;49699;48.072;7.800;2023-04-05T12:33:39;99728.06;;;14.02;29.48
63554;BME280;49699;48.072;7.800;2023-04-05T12:36:07;99731.47;;;13.77;29.99
63554;BME280;49699;48.072;7.800;2023-04-05T12:38:32;99720.09;;;13.78;30.16
63554;BME280;49699;48.072;7.800;2023-04-05T12:41:00;99726.75;;;13.82;29.62
63554;BME280;49699;48.072;7.800;2023-04-05T12:43:36;99723.81;;;13.74;29.28
63554;BME280;49699;48.072;7.800;2023-04-05T12:46:05;99723.56;;;13.64;29.56
63554;BME280;49699;48.072;7.800;2023-04-05T12:48:30;99721.41;;;13.71;29.55
63554;BME280;49699;48.072;7.800;2023-04-05T12:50:55;99716.47;;;13.66;29.62
63554;BME280;49699;48.072;7.800;2023-04-05T12:53:21;99710.75;;;13.74;29.42
63554;BME280;49699;48.072;7.800;2023-04-05T12:55:51;99711.28;;;13.79;29.33
63554;BME280;49699;48.072;7.800;2023-04-05T12:58:16;99714.78;;;13.65;30.35
63554;BME280;49699;48.072;7.800;2023-04-05T13:00:42;99714.16;;;13.62;30.44
63554;BME280;49699;48.072;7.800;2023-04-05T13:03:13;99711.66;;;13.60;30.26
63554;BME280;49699;48.072;7.800;2023-04-05T13:05:39;99707.41;;;13.45;30.27
63554;BME280;49699;48.072;7.800;2023-04-05T13:08:05;99698.13;;;13.41;30.49
63554;BME280;49699;48.072;7.800;2023-04-05T13:10:30;99702.50;;;13.40;30.77
63554;BME280;49699;48.072;7.800;2023-04-05T13:12:55;99705.53;;;13.47;30.53
63554;BME280;49699;48.072;7.800;2023-04-05T13:15:21;99702.34;;;13.56;30.34
63554;BME280;49699;48.072;7.800;2023-04-05T13:17:46;99698.06;;;13.68;30.11
63554;BME280;49699;48.072;7.800;2023-04-05T13:20:14;99703.84;;;13.85;29.47
63554;BME280;49699;48.072;7.800;2023-04-05T13:22:39;99693.59;;;13.82;29.31
63554;BME280;49699;48.072;7.800;2023-04-05T13:25:05;99700.41;;;13.98;29.47
63554;BME280;49699;48.072;7.800;2023-04-05T13:27:30;99688.81;;;14.14;29.00
63554;BME280;49699;48.072;7.800;2023-04-05T13:29:55;99686.72;;;14.19;28.76
63554;BME280;49699;48.072;7.800;2023-04-05T13:32:21;99695.84;;;14.14;28.90
63554;BME280;49699;48.072;7.800;2023-04-05T13:34:46;99686.50;;;14.10;28.64
63554;BME280;49699;48.072;7.800;2023-04-05T13:37:13;99684.50;;;14.01;29.05